Time;durP1;ratioP1;P1;durP2;ratioP2;P2;SDS_P1;SDS_P2;PMS_P1;PMS_P2;Temp;Humidity;BMP_temperature;BMP_pressure;BME280_temperature;BME280_humidity;BME280_pressure;Samples;Min_cycle;Max_cycle;Signal;HPM_P1;HPM_P2
2022/02/14 00:00:09;;;;;;;6.37;2.87;;;;;;;9.78;67.92;99797.09;2027085;29;20063;-60
2022/02/14 00:01:09;;;;;;;5.72;2.63;;;;;;;9.75;68.33;99802.47;2027081;29;20107;-60
2022/02/14 00:02:10;;;;;;;4.57;2.90;;;;;;;9.74;67.90;99792.97;2026308;29;20418;-59
2022/02/14 00:03:10;;;;;;;6.00;2.20;;;;;;;9.78;67.52;99802.31;2026464;29;20056;-60
2022/02/14 00:04:11;;;;;;;4.95;2.60;;;;;;;9.74;68.39;99800.78;2026977;29;20036;-60
2022/02/14 00:05:11;;;;;;;5.53;2.40;;;;;;;9.73;68.05;99796.50;2026997;29;20438;-60
2022/02/14 00:06:11;;;;;;;3.97;2.45;;;;;;;9.70;68.30;99791.47;2034103;29;20505;-61
2022/02/14 00:07:12;;;;;;;6.77;2.57;;;;;;;9.64;68.46;99795.25;2034258;29;20020;-60
2022/02/14 00:08:12;;;;;;;4.47;2.47;;;;;;;9.56;68.79;99796.59;2026966;29;20024;-60
2022/02/14 00:09:13;;;;;;;4.63;1.80;;;;;;;9.46;68.86;99796.25;2026994;29;20028;-61
2022/02/14 00:10:13;;;;;;;5.38;2.10;;;;;;;9.45;69.63;99782.41;2026908;29;20048;-61
2022/02/14 00:11:13;;;;;;;6.47;2.57;;;;;;;9.43;69.34;99794.66;2027006;29;20035;-61
2022/02/14 00:12:14;;;;;;;4.83;2.10;;;;;;;9.42;69.08;99793.00;2034112;29;20324;-61
2022/02/14 00:13:15;;;;;;;4.28;2.25;;;;;;;9.53;69.09;99787.19;2034115;29;20135;-60
2022/02/14 00:14:15;;;;;;;6.07;2.67;;;;;;;9.53;68.84;99775.03;2026293;29;20040;-60
2022/02/14 00:15:15;;;;;;;5.83;2.73;;;;;;;9.54;69.46;99794.06;2026892;29;20080;-62
2022/02/14 00:16:15;;;;;;;5.87;2.30;;;;;;;9.53;68.97;99788.03;2026969;29;20029;-60
2022/02/14 00:17:16;;;;;;;3.37;2.00;;;;;;;9.53;69.36;99784.59;2026853;29;20035;-60
2022/02/14 00:18:16;;;;;;;4.37;2.23;;;;;;;9.53;69.40;99792.41;2026867;29;20060;-60
2022/02/14 00:19:16;;;;;;;4.80;1.87;;;;;;;9.54;69.11;99791.47;2034068;29;20024;-61
2022/02/14 00:20:17;;;;;;;6.70;2.07;;;;;;;9.53;69.05;99782.84;2034164;29;20040;-61
2022/02/14 00:21:17;;;;;;;6.47;3.17;;;;;;;9.53;69.43;99785.44;2027028;29;20040;-61
2022/02/14 00:22:21;;;;;;;5.13;2.00;;;;;;;9.60;68.67;99783.31;2026863;29;20029;-61
2022/02/14 00:23:21;;;;;;;4.85;2.45;;;;;;;9.60;69.02;99793.75;2026907;29;20028;-60
2022/02/14 00:24:22;;;;;;;4.23;1.67;;;;;;;9.55;69.30;99774.09;2026825;29;20028;-60
2022/02/14 00:25:23;;;;;;;3.50;1.97;;;;;;;9.49;69.41;99776.09;2033990;29;20046;-61
2022/02/14 00:26:23;;;;;;;;;;;;;;;9.50;69.34;99777.78;2034397;29;20485;-61
2022/02/14 00:27:23;;;;;;;5.20;2.20;;;;;;;9.50;69.03;99780.38;2026933;29;19915;-60
2022/02/14 00:28:24;;;;;;;5.70;2.20;;;;;;;9.47;69.28;99777.94;2026851;29;20032;-60
2022/02/14 00:29:24;;;;;;;2.83;1.63;;;;;;;9.43;69.65;99776.44;2026861;29;20028;-60
2022/02/14 00:30:24;;;;;;;9.23;2.73;;;;;;;9.43;69.35;99776.44;2026831;29;20104;-60
2022/02/14 00:31:25;;;;;;;6.83;3.30;;;;;;;9.50;69.62;99777.78;2026785;29;20490;-60
2022/02/14 00:32:25;;;;;;;2.37;1.63;;;;;;;9.50;69.21;99783.00;2026833;29;20032;-60
2022/02/14 00:33:25;;;;;;;5.30;2.13;;;;;;;9.51;69.60;99763.81;2026164;29;20064;-60
2022/02/14 00:34:25;;;;;;;3.47;1.80;;;;;;;9.51;69.14;99769.03;2026255;29;20028;-60
2022/02/14 00:35:26;;;;;;;4.83;2.03;;;;;;;9.49;69.84;99765.69;2026804;29;20493;-60
2022/02/14 00:36:26;;;;;;;4.77;2.43;;;;;;;9.45;69.78;99769.41;2033973;29;20030;-60
2022/02/14 00:37:27;;;;;;;3.83;2.55;;;;;;;9.47;69.34;99764.91;2033907;29;20300;-61
2022/02/14 00:38:27;;;;;;;4.23;2.07;;;;;;;9.53;69.63;99769.81;2026738;29;20027;-61
2022/02/14 00:39:27;;;;;;;5.70;2.50;;;;;;;9.53;69.17;99772.41;2026814;29;20024;-60
2022/02/14 00:40:27;;;;;;;3.37;1.97;;;;;;;9.50;69.35;99762.16;2026850;29;20060;-62
2022/02/14 00:41:28;;;;;;;3.10;2.10;;;;;;;9.49;69.41;99757.03;2026783;29;20032;-61
2022/02/14 00:42:28;;;;;;;4.00;2.17;;;;;;;9.48;69.84;99753.56;2026793;29;20490;-61
2022/02/14 00:43:28;;;;;;;5.00;2.00;;;;;;;9.46;69.75;99759.78;2026817;29;20043;-61
2022/02/14 00:44:28;;;;;;;5.77;2.33;;;;;;;9.42;69.92;99751.31;2026582;29;20045;-61
2022/02/14 00:45:29;;;;;;;4.10;2.00;;;;;;;9.38;69.83;99745.44;2026800;29;20466;-61
2022/02/14 00:46:29;;;;;;;7.05;2.53;;;;;;;9.35;70.20;99755.19;2026678;29;20027;-59
2022/02/14 00:47:30;;;;;;;3.27;1.90;;;;;;;9.32;69.93;99760.56;2026706;29;20044;-60
2022/02/14 00:48:30;;;;;;;8.97;2.73;;;;;;;9.39;69.69;99748.88;2026716;29;20024;-61
2022/02/14 00:49:30;;;;;;;4.33;1.80;;;;;;;9.36;69.97;99743.84;2026093;29;20502;-60
2022/02/14 00:50:31;;;;;;;3.33;1.73;;;;;;;9.33;70.21;99739.66;2026106;29;20532;-60
2022/02/14 00:51:31;;;;;;;5.55;2.72;;;;;;;9.29;69.99;99743.34;2026702;29;20032;-60
2022/02/14 00:52:31;;;;;;;4.10;1.90;;;;;;;9.28;70.63;99726.06;2026733;29;20091;-61
2022/02/14 00:53:32;;;;;;;4.73;2.20;;;;;;;9.28;70.68;99746.88;2026700;29;20514;-61
2022/02/14 00:54:32;;;;;;;6.20;2.20;;;;;;;9.30;70.55;99752.00;2026645;29;20055;-62
2022/02/14 00:55:33;;;;;;;3.90;1.80;;;;;;;9.30;70.29;99733.78;2025894;29;20063;-59
2022/02/14 00:56:33;;;;;;;7.67;2.57;;;;;;;9.28;70.55;99726.88;2018263;29;20052;-60
2022/02/14 00:57:33;;;;;;;4.97;1.93;;;;;;;9.23;70.86;99734.09;2025940;29;20447;-61
2022/02/14 00:58:34;;;;;;;5.63;2.10;;;;;;;9.18;71.05;99738.72;2026540;29;20517;-61
2022/02/14 00:59:34;;;;;;;5.10;1.87;;;;;;;9.16;71.08;99732.75;2026646;29;20431;-61
2022/02/14 01:00:34;;;;;;;4.73;1.73;;;;;;;9.18;70.85;99725.72;2026571;29;20021;-60
2022/02/14 01:01:34;;;;;;;5.20;1.83;;;;;;;9.26;70.80;99727.88;2033682;29;20035;-60
2022/02/14 01:02:35;;;;;;;4.20;2.13;;;;;;;9.24;70.73;99717.56;2033742;29;20418;-59
2022/02/14 01:03:36;;;;;;;5.35;2.20;;;;;;;9.31;70.47;99735.44;2026485;29;20061;-59
2022/02/14 01:04:36;;;;;;;4.10;1.80;;;;;;;9.29;70.35;99712.09;2025913;29;20049;-60
2022/02/14 01:05:36;;;;;;;6.23;2.63;;;;;;;9.29;70.48;99714.72;2025951;29;20081;-60
2022/02/14 01:06:37;;;;;;;7.50;2.15;;;;;;;9.24;70.75;99708.91;2026536;29;20075;-60
2022/02/14 01:07:37;;;;;;;6.47;2.00;;;;;;;9.20;70.77;99713.44;2026511;29;20058;-61
2022/02/14 01:08:37;;;;;;;5.65;2.47;;;;;;;9.19;71.15;99711.75;2026471;29;20056;-59
2022/02/14 01:09:39;;;;;;;4.23;1.90;;;;;;;9.29;70.33;99701.69;2026548;29;20036;-60
2022/02/14 01:10:39;;;;;;;5.30;2.33;;;;;;;9.37;70.14;99706.44;2026438;29;20017;-60
2022/02/14 01:11:40;;;;;;;4.57;1.80;;;;;;;9.34;70.55;99704.88;2026562;29;20025;-61
2022/02/14 01:12:41;;;;;;;4.13;1.67;;;;;;;9.27;70.32;99701.78;2026542;29;20538;-61
2022/02/14 01:13:42;;;;;;;5.32;1.73;;;;;;;9.22;70.53;99706.41;2026457;29;20340;-60
2022/02/14 01:14:42;;;;;;;3.77;1.57;;;;;;;9.17;71.16;99697.97;2026422;29;20020;-61
2022/02/14 01:15:42;;;;;;;3.63;2.10;;;;;;;9.12;71.30;99697.41;2026484;29;20050;-60
2022/02/14 01:16:43;;;;;;;5.47;2.20;;;;;;;9.15;71.63;99689.44;2026458;29;20125;-60
2022/02/14 01:17:43;;;;;;;5.13;1.80;;;;;;;9.14;71.57;99698.19;2026482;29;20057;-60
2022/02/14 01:18:43;;;;;;;2.90;1.73;;;;;;;9.10;71.27;99696.66;2026507;29;20023;-60
2022/02/14 01:19:44;;;;;;;4.10;1.80;;;;;;;9.07;71.82;99694.22;2026399;29;20140;-60
2022/02/14 01:20:44;;;;;;;4.60;1.63;;;;;;;9.07;71.57;99686.41;2026410;29;20027;-61
2022/02/14 01:21:44;;;;;;;3.13;1.80;;;;;;;9.08;71.55;99686.34;2026380;29;20344;-61
2022/02/14 01:22:45;;;;;;;5.87;2.60;;;;;;;9.15;71.51;99679.03;2026405;29;20024;-59
2022/02/14 01:23:45;;;;;;;4.67;1.70;;;;;;;9.14;70.85;99682.56;2026439;29;20394;-60
2022/02/14 01:24:45;;;;;;;3.90;1.77;;;;;;;9.10;71.40;99684.47;2026360;29;20123;-59
2022/02/14 01:25:45;;;;;;;3.67;1.90;;;;;;;9.08;71.05;99672.47;2026357;29;20062;-61
2022/02/14 01:26:46;;;;;;;5.27;1.63;;;;;;;9.06;71.71;99675.16;2033572;29;20051;-59
2022/02/14 01:27:46;;;;;;;6.13;2.03;;;;;;;9.11;71.71;99661.91;2033587;29;20037;-60
2022/02/14 01:28:46;;;;;;;4.30;1.70;;;;;;;9.12;71.48;99668.78;2026410;29;20028;-60
2022/02/14 01:29:47;;;;;;;4.93;2.43;;;;;;;9.08;71.63;99664.66;2026375;29;20511;-60
2022/02/14 01:30:47;;;;;;;3.83;1.73;;;;;;;9.12;71.44;99663.56;2033546;29;20592;-60
2022/02/14 01:31:48;;;;;;;3.30;1.57;;;;;;;9.16;71.54;99664.25;2033530;29;20039;-60
2022/02/14 01:32:48;;;;;;;3.67;1.85;;;;;;;9.20;71.36;99660.56;2026395;29;20100;-60
2022/02/14 01:33:48;;;;;;;5.40;1.90;;;;;;;9.18;71.23;99663.25;2026315;29;20051;-60
2022/02/14 01:34:49;;;;;;;3.20;2.07;;;;;;;9.17;71.16;99653.72;2026363;29;20131;-61
2022/02/14 01:35:50;;;;;;;3.53;2.33;;;;;;;9.18;71.21;99655.44;2025677;29;20045;-60
2022/02/14 01:36:50;;;;;;;5.53;2.42;;;;;;;9.18;71.65;99660.63;2025750;29;20063;-61
2022/02/14 01:37:51;;;;;;;3.33;1.60;;;;;;;9.21;71.04;99657.84;2026275;29;20132;-60
2022/02/14 01:38:51;;;;;;;5.60;1.93;;;;;;;9.26;70.69;99649.78;2026278;29;20082;-61
2022/02/14 01:39:51;;;;;;;3.90;2.00;;;;;;;9.27;70.98;99652.31;2026335;29;20037;-59
2022/02/14 01:40:51;;;;;;;7.67;2.13;;;;;;;9.33;70.41;99655.47;2026343;29;20052;-60
2022/02/14 01:41:52;;;;;;;4.80;2.03;;;;;;;9.30;70.88;99650.47;2026306;29;20538;-61
2022/02/14 01:42:52;;;;;;;6.87;2.47;;;;;;;9.32;71.16;99659.00;2025870;29;20553;-61
2022/02/14 01:43:52;;;;;;;5.50;2.23;;;;;;;9.34;70.47;99650.19;2026317;29;20376;-60
2022/02/14 01:44:53;;;;;;;6.77;2.03;;;;;;;9.34;70.78;99651.97;2026174;29;20166;-60
2022/02/14 01:45:53;;;;;;;3.93;1.67;;;;;;;9.35;70.78;99644.06;2026264;29;20474;-62
2022/02/14 01:46:53;;;;;;;5.80;2.00;;;;;;;9.37;70.04;99642.22;2026244;29;20029;-61
2022/02/14 01:47:53;;;;;;;5.10;2.50;;;;;;;9.38;70.71;99649.09;2026208;29;20087;-61
2022/02/14 01:48:54;;;;;;;5.67;1.93;;;;;;;9.35;70.34;99633.66;2026214;29;20025;-61
2022/02/14 01:49:54;;;;;;;4.37;2.67;;;;;;;9.38;70.52;99638.66;2026165;29;20478;-61
2022/02/14 01:50:55;;;;;;;4.57;2.00;;;;;;;9.42;70.28;99636.75;2026199;29;20040;-60
2022/02/14 01:51:55;;;;;;;4.45;1.77;;;;;;;9.44;70.25;99634.88;2026225;29;20464;-61
2022/02/14 01:52:56;;;;;;;4.43;2.17;;;;;;;9.39;70.40;99640.38;2026190;29;20107;-61
2022/02/14 01:53:56;;;;;;;6.40;1.73;;;;;;;9.39;70.73;99631.72;2026220;29;20145;-61
2022/02/14 01:54:57;;;;;;;3.67;2.90;;;;;;;9.37;70.75;99625.75;2033256;29;20729;-61
2022/02/14 01:55:58;;;;;;;3.22;1.75;;;;;;;9.38;70.28;99632.66;2033279;29;20032;-60
2022/02/14 01:56:58;;;;;;;5.67;1.97;;;;;;;9.38;70.44;99630.03;2025459;29;20039;-61
2022/02/14 01:58:03;;;;;;;4.30;2.23;;;;;;;9.35;70.84;99631.06;2025578;29;20111;-59
2022/02/14 01:59:03;;;;;;;4.93;1.77;;;;;;;9.37;70.89;99625.75;2025445;29;20114;-60
2022/02/14 02:00:16;;;;;;;4.23;1.87;;;;;;;9.36;70.49;99624.91;2025566;29;20028;-60
2022/02/14 02:01:16;;;;;;;4.55;1.95;;;;;;;9.37;70.48;99616.16;2026178;29;20046;-60
2022/02/14 02:02:17;;;;;;;3.00;1.63;;;;;;;9.47;70.00;99621.69;2026157;29;20478;-60
2022/02/14 02:03:18;;;;;;;8.00;2.13;;;;;;;9.52;70.44;99622.25;2033236;29;20387;-59
2022/02/14 02:04:18;;;;;;;6.60;1.90;;;;;;;9.56;70.06;99627.28;2025506;29;20031;-59
2022/02/14 02:05:18;;;;;;;4.23;1.80;;;;;;;9.55;69.59;99623.03;2025548;29;20052;-60
2022/02/14 02:06:19;;;;;;;4.53;1.80;;;;;;;9.53;70.07;99626.56;2033237;29;20044;-60
2022/02/14 02:07:19;;;;;;;5.93;2.10;;;;;;;9.50;70.22;99626.72;2033363;29;20031;-61
2022/02/14 02:08:19;;;;;;;4.07;2.00;;;;;;;9.53;70.18;99623.09;2026098;29;20289;-60
2022/02/14 02:09:20;;;;;;;4.03;1.85;;;;;;;9.50;70.10;99621.53;2026108;29;20115;-60
2022/02/14 02:10:20;;;;;;;6.53;1.90;;;;;;;9.49;70.25;99609.44;2026155;29;20029;-61
2022/02/14 02:12:48;;;;;;;3.63;1.90;;;;;;;9.51;70.05;99617.97;2026106;29;20052;-61
2022/02/14 02:13:50;;;;;;;5.97;1.80;;;;;;;9.53;69.95;99616.16;2026013;29;20025;-60
2022/02/14 02:14:55;;;;;;;4.45;1.80;;;;;;;9.52;69.96;99608.41;2026072;29;20493;-60
2022/02/14 02:15:55;;;;;;;4.70;1.80;;;;;;;9.53;69.93;99604.88;2025918;29;20112;-61
2022/02/14 02:16:56;;;;;;;7.23;3.00;;;;;;;9.51;69.77;99612.78;2033122;29;20043;-61
2022/02/14 02:17:57;;;;;;;4.63;1.98;;;;;;;9.53;69.99;99597.91;2033222;29;20032;-60
2022/02/14 02:18:57;;;;;;;3.83;2.17;;;;;;;9.52;70.26;99603.22;2025999;29;20412;-60
2022/02/14 02:19:59;;;;;;;5.73;1.70;;;;;;;9.53;70.00;99605.72;2026063;29;20033;-61
2022/02/14 02:20:59;;;;;;;3.97;1.88;;;;;;;9.52;70.36;99609.22;2026025;29;20483;-60
2022/02/14 02:22:00;;;;;;;6.20;1.87;;;;;;;9.53;69.98;99595.31;2025999;29;20111;-60
2022/02/14 02:23:00;;;;;;;4.63;1.75;;;;;;;9.55;69.95;99604.78;2026063;29;20443;-59
2022/02/14 02:24:03;;;;;;;3.38;1.52;;;;;;;9.58;69.45;99591.59;2026014;29;20040;-60
2022/02/14 02:25:04;;;;;;;4.72;2.00;;;;;;;9.57;69.86;99605.53;2025996;29;20036;-60
2022/02/14 02:26:04;;;;;;;6.22;1.88;;;;;;;9.55;69.81;99594.38;2026030;29;20112;-60
2022/02/14 02:27:05;;;;;;;5.70;1.70;;;;;;;9.52;69.81;99588.41;2025964;29;20056;-60
2022/02/14 02:28:05;;;;;;;4.03;1.77;;;;;;;9.52;69.64;99591.00;2025973;29;20032;-59
2022/02/14 02:29:06;;;;;;;5.73;1.73;;;;;;;9.55;70.45;99586.56;2025996;29;20534;-60
2022/02/14 02:30:08;;;;;;;6.87;2.00;;;;;;;9.51;70.08;99586.72;2026019;29;20046;-60
2022/02/14 02:31:08;;;;;;;4.35;1.90;;;;;;;9.45;70.34;99576.69;2025952;29;20097;-59
2022/02/14 02:32:11;;;;;;;5.67;2.17;;;;;;;9.44;70.41;99575.00;2025968;29;20438;-61
2022/02/14 02:33:11;;;;;;;5.15;1.83;;;;;;;9.47;70.58;99590.44;2025247;29;20080;-60
2022/02/14 02:34:11;;;;;;;4.00;1.50;;;;;;;9.50;70.06;99577.25;2025448;29;20040;-61
2022/02/14 02:35:12;;;;;;;5.83;1.67;;;;;;;9.52;70.28;99583.19;2026002;29;20484;-60
2022/02/14 02:36:13;;;;;;;2.85;1.77;;;;;;;9.53;69.98;99576.22;2025982;29;20043;-60
2022/02/14 02:37:15;;;;;;;3.80;2.00;;;;;;;9.55;69.96;99581.34;2025873;29;20036;-60
2022/02/14 02:38:15;;;;;;;4.88;1.90;;;;;;;9.55;69.81;99578.75;2025932;29;20069;-59
2022/02/14 02:39:16;;;;;;;3.87;1.70;;;;;;;9.57;69.71;99575.13;2025958;29;20028;-60
2022/02/14 02:40:16;;;;;;;2.80;1.70;;;;;;;9.56;69.88;99581.25;2025853;29;20055;-60
2022/02/14 02:41:16;;;;;;;6.30;1.90;;;;;;;9.57;69.53;99589.91;2025972;29;20107;-60
2022/02/14 02:42:19;;;;;;;7.40;1.87;;;;;;;9.61;69.54;99576.63;2025958;29;20379;-60
2022/02/14 02:43:19;;;;;;;4.90;1.85;;;;;;;9.60;69.99;99568.88;2025940;29;20040;-60
2022/02/14 02:44:20;;;;;;;5.40;1.80;;;;;;;9.60;69.59;99568.88;2025762;29;20024;-60
2022/02/14 02:45:20;;;;;;;3.13;1.70;;;;;;;9.61;69.15;99571.41;2025960;29;20080;-60
2022/02/14 02:46:21;;;;;;;2.42;1.40;;;;;;;9.65;69.36;99577.28;2025956;29;20673;-59
2022/02/14 02:47:22;;;;;;;2.87;1.83;;;;;;;9.62;69.46;99567.84;2026009;29;20037;-61
2022/02/14 02:48:23;;;;;;;3.20;1.48;;;;;;;9.59;69.40;99568.06;2026010;29;20050;-61
2022/02/14 02:49:24;;;;;;;5.20;1.80;;;;;;;9.58;69.83;99565.56;2025874;29;20479;-60
2022/02/14 02:50:24;;;;;;;5.07;2.20;;;;;;;9.57;70.08;99558.63;2025921;29;20420;-60
2022/02/14 02:51:24;;;;;;;2.80;1.60;;;;;;;9.56;69.53;99563.03;2025881;29;20028;-60
2022/02/14 02:52:24;;;;;;;4.27;2.10;;;;;;;9.54;69.89;99559.66;2025812;29;20039;-61
2022/02/14 02:53:25;;;;;;;5.27;2.17;;;;;;;9.52;70.04;99564.13;2025225;29;20454;-60
2022/02/14 02:54:26;;;;;;;5.93;2.00;;;;;;;9.52;70.11;99557.16;2025309;29;20033;-60
2022/02/14 02:55:27;;;;;;;3.40;2.47;;;;;;;9.51;69.96;99560.69;2027498;29;20478;-60
2022/02/14 02:56:27;;;;;;;3.90;1.40;;;;;;;9.49;70.45;99557.34;2027481;29;20032;-60
2022/02/14 02:57:27;;;;;;;3.10;1.77;;;;;;;9.47;70.16;99553.97;2027401;29;20033;-60
2022/02/14 02:58:27;;;;;;;4.50;2.07;;;;;;;9.47;69.82;99548.78;2027485;29;20025;-61
2022/02/14 02:59:29;;;;;;;5.43;1.80;;;;;;;9.46;70.29;99552.31;2027405;29;20031;-60
2022/02/14 03:00:29;;;;;;;5.80;1.70;;;;;;;9.43;70.78;99547.28;2027443;29;20020;-60
2022/02/14 03:01:30;;;;;;;6.77;1.60;;;;;;;9.40;70.46;99547.44;2027459;29;20017;-60
2022/02/14 03:02:30;;;;;;;3.67;1.40;;;;;;;9.39;70.38;99551.00;2027483;29;20029;-60
2022/02/14 03:03:30;;;;;;;5.10;1.83;;;;;;;9.43;70.39;99542.06;2034547;29;20284;-59
2022/02/14 03:04:31;;;;;;;4.93;1.60;;;;;;;9.48;70.55;99549.63;2034663;29;20024;-60
2022/02/14 03:05:31;;;;;;;3.92;1.73;;;;;;;9.47;70.68;99538.34;2027351;29;20032;-60
2022/02/14 03:06:32;;;;;;;5.83;1.90;;;;;;;9.50;70.27;99553.81;2027462;29;20033;-59
2022/02/14 03:07:32;;;;;;;4.85;1.35;;;;;;;9.49;70.28;99544.31;2027434;29;20063;-60
2022/02/14 03:08:33;;;;;;;2.33;1.83;;;;;;;9.48;70.31;99553.03;2027443;29;20020;-60
2022/02/14 03:09:33;;;;;;;3.70;1.93;;;;;;;9.55;70.00;99534.47;2027483;29;20423;-60
2022/02/14 03:10:34;;;;;;;5.50;1.93;;;;;;;9.62;70.17;99538.38;2027463;29;20586;-60
2022/02/14 03:11:35;;;;;;;2.97;1.63;;;;;;;9.62;69.91;99538.38;2027377;29;20076;-59
2022/02/14 03:12:35;;;;;;;;;;;;;;;9.63;69.63;99532.25;2027942;29;20084;-60
2022/02/14 03:13:36;;;;;;;3.47;1.73;;;;;;;9.64;69.90;99533.91;2026732;29;20458;-60
2022/02/14 03:14:39;;;;;;;2.90;1.60;;;;;;;9.63;69.83;99521.81;2026880;29;20025;-60
2022/02/14 03:15:39;;;;;;;3.13;1.70;;;;;;;9.65;69.74;99535.59;2027370;29;20024;-59
2022/02/14 03:16:40;;;;;;;4.38;1.70;;;;;;;9.65;69.72;99535.59;2027297;29;20025;-60
2022/02/14 03:17:41;;;;;;;4.07;1.67;;;;;;;9.65;69.50;99525.19;2027312;29;20028;-60
2022/02/14 03:18:42;;;;;;;3.47;1.90;;;;;;;9.64;69.42;99526.94;2027372;29;20506;-60
2022/02/14 03:19:43;;;;;;;2.63;1.58;;;;;;;9.64;70.20;99528.69;2027305;29;20031;-59
2022/02/14 03:20:43;;;;;;;3.47;1.65;;;;;;;9.63;69.48;99522.69;2027369;29;20362;-59
2022/02/14 03:21:44;;;;;;;3.03;1.63;;;;;;;9.61;69.70;99529.72;2026658;29;20470;-60
2022/02/14 03:22:44;;;;;;;4.00;1.70;;;;;;;9.60;70.30;99532.41;2026776;29;20033;-59
2022/02/14 03:23:45;;;;;;;5.55;1.90;;;;;;;9.58;70.20;99524.69;2027288;29;20032;-60
2022/02/14 03:24:46;;;;;;;4.05;1.60;;;;;;;9.57;70.09;99523.03;2027365;29;20040;-60
2022/02/14 03:25:46;;;;;;;3.17;1.23;;;;;;;9.59;69.86;99495.13;2027306;29;20394;-60
2022/02/14 03:26:47;;;;;;;6.50;2.37;;;;;;;9.64;69.47;99513.06;2027343;29;20112;-60
2022/02/14 03:27:47;;;;;;;3.53;1.40;;;;;;;9.70;69.80;99517.94;2027296;29;20029;-60
2022/02/14 03:28:49;;;;;;;3.80;2.00;;;;;;;9.71;69.77;99511.78;2027233;29;20032;-61
2022/02/14 03:29:49;;;;;;;5.28;1.60;;;;;;;9.72;69.05;99510.84;2027262;29;20032;-60
2022/02/14 03:30:49;;;;;;;5.97;1.80;;;;;;;9.72;69.59;99513.44;2027312;29;20085;-60
2022/02/14 03:31:50;;;;;;;4.30;2.43;;;;;;;9.72;69.76;99517.84;2027313;29;20037;-60
2022/02/14 03:32:50;;;;;;;4.83;1.93;;;;;;;9.69;69.75;99516.25;2027333;29;20056;-60
2022/02/14 03:33:51;;;;;;;5.60;2.13;;;;;;;9.66;69.28;99508.63;2027270;29;20041;-60
2022/02/14 03:34:51;;;;;;;4.57;1.75;;;;;;;9.65;69.65;99514.78;2027289;29;20032;-60
2022/02/14 03:35:52;;;;;;;6.07;1.80;;;;;;;9.61;69.81;99513.28;2034401;29;20031;-61
2022/02/14 03:36:52;;;;;;;2.65;1.65;;;;;;;9.60;69.99;99508.97;2034505;29;20060;-60
2022/02/14 03:37:52;;;;;;;4.13;1.90;;;;;;;9.64;69.80;99510.47;2027230;29;20116;-60
2022/02/14 03:38:53;;;;;;;4.90;1.80;;;;;;;9.67;69.98;99497.25;2027204;29;20032;-60
2022/02/14 03:39:53;;;;;;;4.00;1.70;;;;;;;9.70;69.92;99507.50;2034303;29;20055;-61
2022/02/14 03:40:53;;;;;;;3.67;2.07;;;;;;;9.67;69.53;99502.47;2034402;29;20600;-59
2022/02/14 03:41:53;;;;;;;4.17;1.70;;;;;;;9.65;69.73;99507.78;2027145;29;20410;-60
2022/02/14 03:42:54;;;;;;;5.27;1.93;;;;;;;9.66;69.65;99503.41;2027196;29;20044;-60
2022/02/14 03:43:54;;;;;;;6.40;1.80;;;;;;;9.67;69.95;99502.47;2034335;29;20055;-60
2022/02/14 03:44:54;;;;;;;4.03;1.87;;;;;;;9.66;69.57;99493.00;2033872;29;20080;-60
2022/02/14 03:45:55;;;;;;;2.90;1.70;;;;;;;9.63;69.93;99496.63;2026718;29;20028;-60
2022/02/14 03:46:55;;;;;;;4.28;1.50;;;;;;;9.61;69.75;99497.66;2026709;29;20490;-59
2022/02/14 03:47:56;;;;;;;2.87;1.57;;;;;;;9.60;70.05;99495.94;2026674;29;20029;-60
2022/02/14 03:48:57;;;;;;;3.33;1.70;;;;;;;9.59;70.17;99492.53;2026679;29;20024;-61
2022/02/14 03:49:57;;;;;;;3.75;1.48;;;;;;;9.60;70.18;99491.59;2026013;29;20029;-61
2022/02/14 03:50:58;;;;;;;4.20;2.20;;;;;;;9.59;70.46;99489.06;2026108;29;20512;-61
2022/02/14 03:51:58;;;;;;;4.47;1.85;;;;;;;9.57;70.62;99485.72;2026696;29;20095;-60
2022/02/14 03:52:59;;;;;;;3.30;1.60;;;;;;;9.56;70.52;99494.47;2026635;29;20438;-61
2022/02/14 03:53:59;;;;;;;3.70;1.50;;;;;;;9.52;70.28;99486.00;2026650;29;20589;-59
2022/02/14 03:54:59;;;;;;;3.40;1.67;;;;;;;9.52;70.75;99479.00;2026635;29;20028;-60
2022/02/14 03:56:00;;;;;;;4.10;1.67;;;;;;;9.55;70.58;99484.97;2033769;29;20501;-60
2022/02/14 03:57:01;;;;;;;5.00;2.17;;;;;;;9.57;70.86;99488.31;2033700;29;20055;-60
2022/02/14 03:58:01;;;;;;;3.27;1.40;;;;;;;9.60;70.50;99495.94;2026738;29;20045;-61
2022/02/14 03:59:01;;;;;;;3.30;1.43;;;;;;;9.58;70.66;99484.81;2025910;29;20059;-60
2022/02/14 04:00:04;;;;;;;4.80;1.80;;;;;;;9.55;70.59;99487.59;2018239;29;20422;-61
2022/02/14 04:01:05;;;;;;;3.03;1.52;;;;;;;9.60;69.95;99475.97;2026020;29;20035;-61
2022/02/14 04:02:05;;;;;;;5.40;1.73;;;;;;;9.65;69.63;99486.13;2026648;29;20024;-59
2022/02/14 04:03:05;;;;;;;2.30;1.70;;;;;;;9.66;69.98;99479.97;2026602;29;20075;-60
2022/02/14 04:04:06;;;;;;;4.10;1.70;;;;;;;9.64;69.71;99481.81;2026569;29;20029;-60
2022/02/14 04:05:06;;;;;;;2.13;1.55;;;;;;;9.61;70.06;99484.63;2026471;29;20024;-60
2022/02/14 04:06:06;;;;;;;2.97;1.38;;;;;;;9.61;69.98;99482.03;2026196;29;20052;-60
2022/02/14 04:07:07;;;;;;;4.70;1.40;;;;;;;9.59;70.32;99476.06;2026552;29;20060;-60
2022/02/14 04:08:07;;;;;;;3.03;1.20;;;;;;;9.60;70.09;99481.19;2025871;29;20035;-59
2022/02/14 04:09:07;;;;;;;3.07;1.50;;;;;;;9.60;70.11;99482.94;2025967;29;20048;-59
2022/02/14 04:10:09;;;;;;;4.40;1.90;;;;;;;9.58;70.26;99479.59;2026495;29;20068;-60
2022/02/14 04:11:09;;;;;;;5.45;2.25;;;;;;;9.62;70.71;99481.91;2026481;29;20032;-62
2022/02/14 04:12:10;;;;;;;9.10;2.20;;;;;;;9.62;70.35;99481.09;2026549;29;20364;-60
2022/02/14 04:13:10;;;;;;;6.47;1.90;;;;;;;9.60;70.11;99486.38;2026537;29;20044;-60
2022/02/14 04:14:10;;;;;;;2.90;1.60;;;;;;;9.61;70.18;99482.03;2026774;29;20053;-60
2022/02/14 04:15:11;;;;;;;7.00;1.90;;;;;;;9.57;70.42;99481.34;2026630;29;20462;-60
2022/02/14 04:16:11;;;;;;;4.53;1.58;;;;;;;9.56;70.68;99478.84;2026473;29;20047;-61
2022/02/14 04:17:12;;;;;;;3.83;1.80;;;;;;;9.56;69.97;99474.47;2026347;29;20080;-60
2022/02/14 04:18:12;;;;;;;5.10;2.07;;;;;;;9.58;70.70;99477.00;2026541;29;20028;-59
2022/02/14 04:19:12;;;;;;;4.30;2.57;;;;;;;9.60;70.36;99485.53;2026424;29;20778;-59
2022/02/14 04:20:13;;;;;;;3.97;1.40;;;;;;;9.59;70.31;99489.94;2026540;29;20030;-60
2022/02/14 04:21:13;;;;;;;6.38;2.03;;;;;;;9.63;69.95;99474.94;2026439;29;20033;-60
2022/02/14 04:22:14;;;;;;;4.30;1.57;;;;;;;9.64;70.32;99476.59;2026480;29;20458;-59
2022/02/14 04:23:14;;;;;;;1.90;1.17;;;;;;;9.61;70.85;99471.59;2026472;29;20029;-60
2022/02/14 04:24:14;;;;;;;5.07;1.83;;;;;;;9.62;70.28;99475.88;2026503;29;20041;-59
2022/02/14 04:25:16;;;;;;;4.67;1.70;;;;;;;9.68;70.08;99472.06;2026459;29;20036;-59
2022/02/14 04:26:16;;;;;;;;;;;;;;;9.69;70.12;99474.59;2026086;29;20029;-60
2022/02/14 04:27:16;;;;;;;3.00;1.50;;;;;;;9.66;70.51;99479.97;2025760;29;20369;-60
2022/02/14 04:28:16;;;;;;;5.60;1.40;;;;;;;9.63;70.28;99475.78;2026269;29;20103;-60
2022/02/14 04:29:17;;;;;;;3.43;1.90;;;;;;;9.67;70.55;99476.44;2026257;29;20035;-60
2022/02/14 04:30:17;;;;;;;3.63;2.03;;;;;;;9.65;70.16;99473.91;2026244;29;20028;-59
2022/02/14 04:31:17;;;;;;;2.63;1.43;;;;;;;9.64;70.57;99479.22;2026322;29;20076;-60
2022/02/14 04:32:18;;;;;;;4.50;1.10;;;;;;;9.61;70.50;99471.59;2026344;29;20439;-61
2022/02/14 04:33:18;;;;;;;3.00;1.47;;;;;;;9.66;70.23;99490.38;2026526;29;20092;-61
2022/02/14 04:34:21;;;;;;;2.90;1.53;;;;;;;9.71;70.68;99480.50;2026378;29;20041;-61
2022/02/14 04:35:21;;;;;;;3.42;2.20;;;;;;;9.74;70.08;99484.69;2026338;29;20389;-60
2022/02/14 04:36:21;;;;;;;5.37;1.60;;;;;;;9.71;70.22;99480.50;2026393;29;20431;-60
2022/02/14 04:37:22;;;;;;;2.73;1.40;;;;;;;9.69;70.43;99474.59;2026370;29;20067;-60
2022/02/14 04:38:22;;;;;;;3.23;1.53;;;;;;;9.66;70.37;99490.38;2026358;29;20060;-61
2022/02/14 04:39:22;;;;;;;5.27;1.80;;;;;;;9.64;70.68;99482.66;2026344;29;20032;-61
2022/02/14 04:40:23;;;;;;;4.33;1.40;;;;;;;9.64;70.78;99481.81;2026383;29;20091;-60
2022/02/14 04:41:23;;;;;;;2.77;1.63;;;;;;;9.65;70.74;99484.34;2026256;29;20035;-60
2022/02/14 04:42:24;;;;;;;3.87;1.83;;;;;;;9.66;71.03;99482.56;2026376;29;20108;-61
2022/02/14 04:43:24;;;;;;;3.83;1.60;;;;;;;9.65;70.24;99478.31;2026347;29;20068;-60
2022/02/14 04:44:24;;;;;;;3.03;1.10;;;;;;;9.71;70.50;99477.91;1991214;29;1036612;-60
2022/02/14 04:45:25;;;;;;;3.27;1.60;;;;;;;9.72;70.14;99483.97;2026742;29;20036;-60
2022/02/14 04:46:25;;;;;;;4.38;1.60;;;;;;;9.67;70.64;99481.63;2026716;29;20028;-60
2022/02/14 04:47:26;;;;;;;3.40;1.40;;;;;;;9.64;70.99;99487.88;2026746;29;20068;-60
2022/02/14 04:48:28;;;;;;;2.23;1.03;;;;;;;9.65;70.44;99483.50;2026702;29;20040;-60
2022/02/14 04:49:28;;;;;;;6.82;1.73;;;;;;;9.66;71.21;99475.56;2026724;29;20023;-61